Time;durP1;ratioP1;P1;durP2;ratioP2;P2;SDS_P1;SDS_P2;PMS_P1;PMS_P2;Temp;Humidity;BMP_temperature;BMP_pressure;BME280_temperature;BME280_humidity;BME280_pressure;Samples;Min_cycle;Max_cycle;Signal;HPM_P1;HPM_P2
2021/01/21 00:01:41;;;;;;;;;;;;;;;0.45;100.00;95690.22;5117989;28;19924;-76
2021/01/21 00:04:08;;;;;;;;;;;;;;;0.48;100.00;95679.16;5118048;27;20015;-76
2021/01/21 00:06:34;;;;;;;;;;;;;;;0.56;100.00;95679.69;5117614;27;19923;-76
2021/01/21 00:09:01;;;;;;;;;;;;;;;0.59;100.00;95668.59;5117955;28;20014;-76
2021/01/21 00:11:28;;;;;;;;;;;;;;;0.72;100.00;95616.38;5117724;28;19969;-76
2021/01/21 00:13:54;;;;;;;;;;;;;;;0.79;100.00;95625.16;5117819;28;19923;-76
2021/01/21 00:16:21;;;;;;;;;;;;;;;0.89;100.00;95610.34;5116599;28;19928;-76
2021/01/21 00:18:48;;;;;;;;;;;;;;;1.00;100.00;95637.47;5117508;28;19924;-76
2021/01/21 00:21:14;;;;;;;;;;;;;;;1.09;100.00;95612.81;5117453;28;19924;-76
2021/01/21 00:23:41;;;;;;;;;;;;;;;1.19;100.00;95626.19;5117672;28;19924;-75
2021/01/21 00:26:11;;;;;;;;;;;;;;;1.11;100.00;95648.84;5116427;28;19927;-75
2021/01/21 00:28:38;;;;;;;;;;;;;;;0.97;100.00;95661.09;5117542;28;19933;-75
2021/01/21 00:31:04;;;;;;;;;;;;;;;0.85;100.00;95658.38;5117247;28;19928;-75
2021/01/21 00:33:31;;;;;;;;;;;;;;;0.71;100.00;95651.31;5117476;28;19924;-76
2021/01/21 00:35:57;;;;;;;;;;;;;;;0.62;100.00;95651.22;5117074;28;19924;-76
2021/01/21 00:38:24;;;;;;;;;;;;;;;0.53;100.00;95662.09;5117307;28;19923;-76
2021/01/21 00:40:50;;;;;;;;;;;;;;;0.51;100.00;95689.25;5116037;28;19946;-75
2021/01/21 00:43:17;;;;;;;;;;;;;;;0.55;100.00;95684.41;5116171;28;19973;-76
2021/01/21 00:45:44;;;;;;;;;;;;;;;0.54;100.00;95688.38;5115896;28;19931;-75
2021/01/21 00:48:10;;;;;;;;;;;;;;;0.53;100.00;95692.31;5117146;28;20450;-75
2021/01/21 00:50:37;;;;;;;;;;;;;;;0.54;100.00;95693.88;5116621;28;19927;-75
2021/01/21 00:53:03;;;;;;;;;;;;;;;0.53;100.00;95695.06;5115789;28;20027;-76
2021/01/21 00:55:30;;;;;;;;;;;;;;;0.58;100.00;95710.22;5115728;28;19924;-76
2021/01/21 00:57:57;;;;;;;;;;;;;;;0.68;100.00;95704.41;5115694;28;19924;-74
2021/01/21 01:00:24;;;;;;;;;;;;;;;0.77;100.00;95715.53;5116873;28;19931;-75
2021/01/21 01:02:50;;;;;;;;;;;;;;;0.81;100.00;95740.91;5115614;28;19924;-75
2021/01/21 01:05:17;;;;;;;;;;;;;;;0.84;100.00;95728.25;5116545;28;20252;-75
2021/01/21 01:07:46;;;;;;;;;;;;;;;0.79;100.00;95756.31;5115460;28;19924;-75
2021/01/21 01:10:14;;;;;;;;;;;;;;;0.71;100.00;95735.75;5114605;28;19924;-75
2021/01/21 01:12:41;;;;;;;;;;;;;;;0.66;100.00;95742.56;5115293;28;19968;-75
2021/01/21 01:15:09;;;;;;;;;;;;;;;0.67;100.00;95755.06;5115386;28;19931;-75
2021/01/21 01:17:37;;;;;;;;;;;;;;;0.72;100.00;95765.53;5115327;28;19934;-75
2021/01/21 01:20:04;;;;;;;;;;;;;;;0.71;100.00;95780.47;5115845;28;19924;-75
2021/01/21 01:22:32;;;;;;;;;;;;;;;0.60;100.00;95760.78;5115284;28;20030;-74
2021/01/21 01:24:59;;;;;;;;;;;;;;;0.53;100.00;95788.44;5116613;28;20322;-75
2021/01/21 01:27:26;;;;;;;;;;;;;;;0.58;100.00;95787.91;5115350;28;19928;-75
2021/01/21 01:29:53;;;;;;;;;;;;;;;0.60;100.00;95774.53;5115056;28;20314;-74
2021/01/21 01:32:20;;;;;;;;;;;;;;;0.65;100.00;95795.94;5098034;28;20283;-75
2021/01/21 01:34:51;;;;;;;;;;;;;;;0.72;100.00;95809.50;5114713;28;19924;-75
2021/01/21 01:37:20;;;;;;;;;;;;;;;0.71;100.00;95829.91;5114985;28;19930;-75
2021/01/21 01:39:57;;;;;;;;;;;;;;;0.75;100.00;95827.84;5114930;28;19924;-75
2021/01/21 01:42:46;;;;;;;;;;;;;;;0.81;100.00;95858.28;5114920;28;19968;-74
2021/01/21 01:45:16;;;;;;;;;;;;;;;0.82;100.00;95866.09;5114665;28;19966;-75
2021/01/21 01:47:46;;;;;;;;;;;;;;;0.86;100.00;95864.03;5114783;28;20283;-75
2021/01/21 01:50:25;;;;;;;;;;;;;;;0.89;100.00;95879.66;5114392;28;19924;-74
2021/01/21 01:52:54;;;;;;;;;;;;;;;0.86;100.00;95905.28;5115892;28;19927;-74
2021/01/21 01:55:23;;;;;;;;;;;;;;;0.91;100.00;95920.44;5114651;28;19928;-74
2021/01/21 01:58:17;;;;;;;;;;;;;;;0.91;100.00;95942.44;5110829;28;19923;-75
2021/01/21 02:00:52;;;;;;;;;;;;;;;0.83;100.00;95971.31;5114551;28;19924;-75
2021/01/21 02:03:20;;;;;;;;;;;;;;;0.83;100.00;95980.34;5115413;28;19923;-74
2021/01/21 02:06:05;;;;;;;;;;;;;;;0.89;100.00;96005.31;5114461;28;20325;-75
2021/01/21 02:08:32;;;;;;;;;;;;;;;0.89;100.00;95999.81;5097641;28;20351;-75
2021/01/21 02:11:13;;;;;;;;;;;;;;;0.88;100.00;96026.50;5114077;28;19930;-75
2021/01/21 02:13:49;;;;;;;;;;;;;;;0.92;100.00;96049.22;5115494;28;20061;-75
2021/01/21 02:16:46;;;;;;;;;;;;;;;0.95;100.00;96067.59;5114087;28;19924;-75
2021/01/21 02:19:17;;;;;;;;;;;;;;;0.91;100.00;96099.88;5113851;28;19993;-75
2021/01/21 02:21:47;;;;;;;;;;;;;;;0.94;100.00;96117.50;5114187;28;20519;-75
2021/01/21 02:24:32;;;;;;;;;;;;;;;0.93;100.00;96122.22;5114090;28;20386;-74
2021/01/21 02:27:04;;;;;;;;;;;;;;;0.95;100.00;96161.03;5097296;28;20291;-75
2021/01/21 02:29:37;;;;;;;;;;;;;;;0.98;100.00;96193.16;5114150;28;19998;-74
2021/01/21 02:32:07;;;;;;;;;;;;;;;1.00;100.00;96231.97;5113532;28;19927;-74
2021/01/21 02:34:57;;;;;;;;;;;;;;;1.00;100.00;96251.22;5104169;28;20377;-75
2021/01/21 02:37:27;;;;;;;;;;;;;;;1.07;100.00;96297.81;5096832;28;19924;-76
2021/01/21 02:40:03;;;;;;;;;;;;;;;1.10;100.00;96346.47;5113684;28;19923;-75
2021/01/21 02:42:46;;;;;;;;;;;;;;;1.13;100.00;96417.09;5115017;28;19928;-75
2021/01/21 02:45:17;;;;;;;;;;;;;;;1.18;100.00;96471.59;5113776;28;19934;-75
2021/01/21 02:47:48;;;;;;;;;;;;;;;1.19;100.00;96510.88;5097171;28;19924;-75
2021/01/21 02:50:15;;;;;;;;;;;;;;;1.19;100.00;96552.91;5114817;28;20488;-76
2021/01/21 02:52:54;;;;;;;;;;;;;;;1.20;100.00;96595.72;5113567;28;20025;-76
2021/01/21 02:55:30;;;;;;;;;;;;;;;1.26;100.00;96605.03;5113658;28;19923;-76
2021/01/21 02:58:13;;;;;;;;;;;;;;;1.37;100.00;96613.88;5096559;28;19967;-75
2021/01/21 03:00:41;;;;;;;;;;;;;;;1.46;100.00;96619.59;5114446;28;20010;-76
2021/01/21 03:03:11;;;;;;;;;;;;;;;1.52;100.00;96637.16;5113483;28;19924;-74
2021/01/21 03:05:39;;;;;;;;;;;;;;;1.59;100.00;96639.75;5113457;28;19924;-74
2021/01/21 03:08:06;;;;;;;;;;;;;;;1.59;100.00;96625.25;5113421;28;20473;-74
2021/01/21 03:10:33;;;;;;;;;;;;;;;1.57;100.00;96628.44;5114485;28;19924;-74
2021/01/21 03:12:59;;;;;;;;;;;;;;;1.56;100.00;96629.59;5114577;27;19924;-74
2021/01/21 03:15:36;;;;;;;;;;;;;;;1.47;100.00;96623.88;5112997;28;19930;-73
2021/01/21 03:18:09;;;;;;;;;;;;;;;1.40;100.00;96623.25;5096324;28;19931;-74
2021/01/21 03:20:37;;;;;;;;;;;;;;;1.40;100.00;96624.03;5113022;28;19934;-74
2021/01/21 03:23:04;;;;;;;;;;;;;;;1.41;100.00;96647.59;5113254;28;19957;-76
2021/01/21 03:25:36;;;;;;;;;;;;;;;1.46;100.00;96638.84;5113216;28;20014;-76
2021/01/21 03:28:08;;;;;;;;;;;;;;;1.50;100.00;96639.53;5113309;28;19931;-76
2021/01/21 03:30:36;;;;;;;;;;;;;;;1.50;100.00;96639.53;5095956;28;19923;-76
2021/01/21 03:33:03;;;;;;;;;;;;;;;1.55;100.00;96641.03;5096086;28;19924;-76
2021/01/21 03:35:39;;;;;;;;;;;;;;;1.54;100.00;96645.78;5113102;28;19930;-76
2021/01/21 03:38:06;;;;;;;;;;;;;;;1.48;100.00;96650.22;5114306;28;19938;-76
2021/01/21 03:40:41;;;;;;;;;;;;;;;1.52;100.00;96647.38;5113257;28;19931;-76
2021/01/21 03:43:08;;;;;;;;;;;;;;;1.51;100.00;96657.63;5113080;28;19924;-76
2021/01/21 03:45:52;;;;;;;;;;;;;;;1.41;100.00;96658.59;5114123;28;19924;-76
2021/01/21 03:48:19;;;;;;;;;;;;;;;1.45;100.00;96670.28;5113030;28;19923;-76
2021/01/21 03:51:04;;;;;;;;;;;;;;;1.47;100.00;96667.91;5114133;28;19928;-76
2021/01/21 03:53:31;;;;;;;;;;;;;;;1.46;100.00;96663.63;5113051;28;19931;-76
2021/01/21 03:56:16;;;;;;;;;;;;;;;1.42;100.00;96671.13;5113182;28;20295;-76
2021/01/21 03:58:43;;;;;;;;;;;;;;;1.39;100.00;96677.47;5112701;28;19938;-76
2021/01/21 04:01:15;;;;;;;;;;;;;;;1.45;100.00;96691.56;5113047;28;19986;-76
2021/01/21 04:03:43;;;;;;;;;;;;;;;1.46;100.00;96684.84;5096199;28;19972;-76
2021/01/21 04:06:11;;;;;;;;;;;;;;;1.51;100.00;96698.91;5112891;28;19930;-76
2021/01/21 04:08:38;;;;;;;;;;;;;;;1.49;100.00;96692.25;5112914;28;19927;-76
2021/01/21 04:11:31;;;;;;;;;;;;;;;1.54;100.00;96700.81;5111080;28;20370;-76
2021/01/21 04:14:02;;;;;;;;;;;;;;;1.50;100.00;96702.84;5112744;28;19923;-76
2021/01/21 04:16:29;;;;;;;;;;;;;;;1.47;100.00;96700.94;5112803;28;20010;-76
2021/01/21 04:18:56;;;;;;;;;;;;;;;1.49;100.00;96686.75;5112665;28;20026;-76
2021/01/21 04:21:25;;;;;;;;;;;;;;;1.48;100.00;96696.22;5112725;28;19923;-76
2021/01/21 04:24:01;;;;;;;;;;;;;;;1.46;100.00;96704.09;5112728;28;19939;-76
2021/01/21 04:26:36;;;;;;;;;;;;;;;1.42;100.00;96686.88;5112748;28;19923;-75
2021/01/21 04:29:03;;;;;;;;;;;;;;;1.40;100.00;96698.31;5112415;28;19924;-76
2021/01/21 04:31:30;;;;;;;;;;;;;;;1.39;100.00;96705.00;5112607;28;19928;-75
2021/01/21 04:34:06;;;;;;;;;;;;;;;1.35;100.00;96704.28;5097045;28;20014;-75
2021/01/21 04:36:33;;;;;;;;;;;;;;;1.35;100.00;96701.53;5095622;28;19927;-76
2021/01/21 04:39:00;;;;;;;;;;;;;;;1.33;100.00;96690.16;5112538;28;19927;-76
2021/01/21 04:41:29;;;;;;;;;;;;;;;1.31;100.00;96708.31;5095426;28;19930;-76
2021/01/21 04:44:02;;;;;;;;;;;;;;;1.29;100.00;96705.97;5112746;28;19924;-76
2021/01/21 04:46:43;;;;;;;;;;;;;;;1.31;100.00;96716.56;5116144;28;19931;-76
2021/01/21 04:49:10;;;;;;;;;;;;;;;1.32;100.00;96721.63;5115914;28;19931;-76
2021/01/21 04:51:41;;;;;;;;;;;;;;;1.32;100.00;96716.13;5115951;28;20278;-75
2021/01/21 04:54:16;;;;;;;;;;;;;;;1.29;100.00;96716.97;5116006;28;19947;-75
2021/01/21 04:57:06;;;;;;;;;;;;;;;1.27;100.00;96708.34;5116664;28;19931;-75
2021/01/21 04:59:41;;;;;;;;;;;;;;;1.28;100.00;96725.66;5099892;28;20052;-76
2021/01/21 05:02:14;;;;;;;;;;;;;;;1.26;100.00;96717.81;5117087;27;19969;-76
2021/01/21 05:04:49;;;;;;;;;;;;;;;1.19;100.00;96728.16;5098804;28;19930;-76
2021/01/21 05:07:30;;;;;;;;;;;;;;;1.16;100.00;96724.28;5115698;28;19931;-75
2021/01/21 05:09:56;;;;;;;;;;;;;;;1.19;100.00;96739.94;5115495;28;19930;-76
2021/01/21 05:12:23;;;;;;;;;;;;;;;1.16;100.00;96740.00;5115223;28;19928;-76
2021/01/21 05:15:10;;;;;;;;;;;;;;;1.24;100.00;96747.69;5115526;28;19933;-76
2021/01/21 05:18:08;;;;;;;;;;;;;;;1.24;100.00;96753.19;5116494;28;19923;-76
2021/01/21 05:20:58;;;;;;;;;;;;;;;1.25;100.00;96752.03;5098272;28;19928;-76
2021/01/21 05:23:43;;;;;;;;;;;;;;;1.32;100.00;96751.91;5116446;28;20420;-76
2021/01/21 05:26:25;;;;;;;;;;;;;;;1.34;100.00;96771.53;5114718;28;19924;-76
2021/01/21 05:29:17;;;;;;;;;;;;;;;1.39;100.00;96759.25;5053103;28;19936;-76
2021/01/21 05:31:54;;;;;;;;;;;;;;;1.40;100.00;96750.59;5036605;28;19926;-75
2021/01/21 05:34:23;;;;;;;;;;;;;;;1.44;100.00;96762.31;5036151;28;19925;-76
2021/01/21 05:37:15;;;;;;;;;;;;;;;1.53;100.00;96759.78;5052932;28;19948;-75
2021/01/21 05:40:08;;;;;;;;;;;;;;;1.54;100.00;96731.09;5050630;28;20375;-75
2021/01/21 05:43:04;;;;;;;;;;;;;;;1.51;100.00;96714.63;5040743;28;20501;-75
2021/01/21 05:45:51;;;;;;;;;;;;;;;1.52;100.00;96708.72;5053510;28;20327;-76
2021/01/21 05:48:19;;;;;;;;;;;;;;;1.53;100.00;96693.75;5053091;28;19947;-76
2021/01/21 05:50:48;;;;;;;;;;;;;;;1.60;100.00;96668.88;5020419;28;20414;-75
2021/01/21 05:53:17;;;;;;;;;;;;;;;1.63;100.00;96640.50;5053036;28;20342;-76
2021/01/21 05:55:51;;;;;;;;;;;;;;;1.64;100.00;96624.75;5052203;28;20334;-75
2021/01/21 05:58:25;;;;;;;;;;;;;;;1.69;100.00;96608.53;5052927;28;20454;-76
2021/01/21 06:00:53;;;;;;;;;;;;;;;1.68;100.00;96590.44;5019987;28;20470;-76
2021/01/21 06:03:31;;;;;;;;;;;;;;;1.71;100.00;96570.31;5036179;28;20380;-76
2021/01/21 06:06:04;;;;;;;;;;;;;;;1.71;100.00;96551.06;5070780;28;20029;-76
2021/01/21 06:08:31;;;;;;;;;;;;;;;1.68;100.00;96524.38;5114388;28;19969;-76
2021/01/21 06:11:01;;;;;;;;;;;;;;;1.70;100.00;96505.47;5113983;28;20349;-76
2021/01/21 06:13:29;;;;;;;;;;;;;;;1.73;100.00;96487.31;5114329;28;19935;-76
2021/01/21 06:15:58;;;;;;;;;;;;;;;1.74;100.00;96440.09;5114264;28;19971;-75
2021/01/21 06:18:24;;;;;;;;;;;;;;;1.72;100.00;96415.00;5115283;28;19927;-76
2021/01/21 06:21:01;;;;;;;;;;;;;;;1.71;100.00;96394.16;5115308;28;19924;-76
2021/01/21 06:23:51;;;;;;;;;;;;;;;1.74;100.00;96374.03;5115045;28;19923;-76
2021/01/21 06:26:31;;;;;;;;;;;;;;;1.74;100.00;96357.50;5114068;28;20018;-76
2021/01/21 06:28:59;;;;;;;;;;;;;;;1.74;100.00;96349.25;5115223;28;20068;-76
2021/01/21 06:31:27;;;;;;;;;;;;;;;1.71;100.00;96330.09;5115007;28;20389;-75
2021/01/21 06:33:55;;;;;;;;;;;;;;;1.73;100.00;96313.91;5115124;28;19931;-75
2021/01/21 06:36:24;;;;;;;;;;;;;;;1.74;100.00;96313.47;5114967;28;19931;-76
2021/01/21 06:38:55;;;;;;;;;;;;;;;1.76;100.00;96300.06;5114560;28;20064;-77
2021/01/21 06:41:23;;;;;;;;;;;;;;;1.79;100.00;96284.66;5115032;28;19924;-77
2021/01/21 06:43:49;;;;;;;;;;;;;;;1.80;100.00;96278.72;5115100;28;19924;-77
2021/01/21 06:46:16;;;;;;;;;;;;;;;1.78;100.00;96281.16;5113738;28;19924;-76
2021/01/21 06:48:46;;;;;;;;;;;;;;;1.76;100.00;96266.25;5114741;28;19923;-76
2021/01/21 06:51:13;;;;;;;;;;;;;;;1.78;100.00;96269.34;5114474;28;19924;-76
2021/01/21 06:53:44;;;;;;;;;;;;;;;1.77;100.00;96252.06;5113457;28;20295;-76
2021/01/21 06:56:11;;;;;;;;;;;;;;;1.81;100.00;96247.25;5112776;28;19924;-76
2021/01/21 06:58:48;;;;;;;;;;;;;;;1.79;100.00;96240.59;5114159;28;20370;-76
2021/01/21 07:01:26;;;;;;;;;;;;;;;1.79;100.00;96244.16;5113793;28;19931;-76
2021/01/21 07:03:53;;;;;;;;;;;;;;;1.79;100.00;96227.63;5113844;27;20459;-76
2021/01/21 07:06:20;;;;;;;;;;;;;;;1.79;100.00;96244.16;5113558;27;19927;-76
2021/01/21 07:09:06;;;;;;;;;;;;;;;1.77;100.00;96243.78;5113128;28;20018;-76
2021/01/21 07:11:33;;;;;;;;;;;;;;;1.80;100.00;96233.91;5113687;28;20003;-76
2021/01/21 07:14:00;;;;;;;;;;;;;;;1.84;100.00;96240.88;5113652;28;20489;-76
2021/01/21 07:16:56;;;;;;;;;;;;;;;1.85;100.00;96223.13;5113628;28;19930;-76
2021/01/21 07:19:33;;;;;;;;;;;;;;;1.88;100.00;96230.53;5113376;28;20370;-76
2021/01/21 07:22:10;;;;;;;;;;;;;;;1.99;100.00;96212.94;5113313;28;19931;-76
2021/01/21 07:24:44;;;;;;;;;;;;;;;2.01;100.00;96232.56;5113494;28;19938;-77
2021/01/21 07:27:12;;;;;;;;;;;;;;;2.03;100.00;96227.41;5113484;28;19924;-76
2021/01/21 07:29:39;;;;;;;;;;;;;;;2.04;100.00;96221.44;5113634;28;20014;-76
2021/01/21 07:32:06;;;;;;;;;;;;;;;2.11;100.00;96220.47;5113393;28;19924;-76
2021/01/21 07:34:37;;;;;;;;;;;;;;;2.07;100.00;96208.78;5113511;28;20014;-77
2021/01/21 07:37:19;;;;;;;;;;;;;;;1.99;100.00;96210.19;5111847;28;19930;-77
2021/01/21 07:40:04;;;;;;;;;;;;;;;2.10;100.00;96207.91;5113351;28;19931;-76
2021/01/21 07:42:36;;;;;;;;;;;;;;;2.10;100.00;96202.41;5113501;28;20374;-76
2021/01/21 07:45:15;;;;;;;;;;;;;;;2.10;100.00;96196.91;5112082;28;20022;-76
2021/01/21 07:47:42;;;;;;;;;;;;;;;2.13;100.00;96196.03;5113346;28;19931;-76
2021/01/21 07:52:53;;;;;;;;;;;;;;;2.13;100.00;96196.03;5112942;28;19946;-76
2021/01/21 07:55:46;;;;;;;;;;;;;;;2.06;100.00;96174.97;5113369;28;20391;-77
2021/01/21 07:58:16;;;;;;;;;;;;;;;1.98;100.00;96175.59;5111267;28;19927;-77
2021/01/21 08:00:43;;;;;;;;;;;;;;;1.96;100.00;96184.28;5113130;28;19924;-76
2021/01/21 08:03:10;;;;;;;;;;;;;;;1.95;100.00;96168.22;5113236;28;19924;-76
2021/01/21 08:05:37;;;;;;;;;;;;;;;1.89;100.00;96166.00;5113036;28;19924;-76
2021/01/21 08:08:04;;;;;;;;;;;;;;;1.85;100.00;96170.06;5113076;28;20018;-78
2021/01/21 08:10:31;;;;;;;;;;;;;;;1.91;100.00;96175.81;5112988;28;19928;-76
2021/01/21 08:13:02;;;;;;;;;;;;;;;1.95;100.00;96179.22;5113088;28;19932;-77
2021/01/21 08:15:29;;;;;;;;;;;;;;;1.99;100.00;96188.16;5095125;28;19924;-77
2021/01/21 08:17:56;;;;;;;;;;;;;;;1.99;100.00;96179.88;5113480;28;19930;-77
2021/01/21 08:20:24;;;;;;;;;;;;;;;1.99;100.00;96179.88;5116350;28;19930;-77
2021/01/21 08:22:51;;;;;;;;;;;;;;;1.99;100.00;96180.66;5117079;28;20374;-78
2021/01/21 08:25:18;;;;;;;;;;;;;;;1.99;100.00;96182.66;5116923;27;19963;-80
2021/01/21 08:27:45;;;;;;;;;;;;;;;2.03;100.00;96178.59;5088202;28;19927;-78
2021/01/21 08:30:21;;;;;;;;;;;;;;;2.01;100.00;96183.00;5104702;28;19923;-74
2021/01/21 08:32:52;;;;;;;;;;;;;;;1.97;100.00;96174.06;5110055;28;19924;-75
2021/01/21 08:35:23;;;;;;;;;;;;;;;2.01;100.00;96177.47;5110227;28;20344;-75
2021/01/21 08:37:50;;;;;;;;;;;;;;;2.03;100.00;96175.06;5110259;28;19923;-75
2021/01/21 08:40:18;;;;;;;;;;;;;;;2.06;100.00;96183.22;5110267;28;19934;-75
2021/01/21 08:42:46;;;;;;;;;;;;;;;2.08;100.00;96171.75;5111323;28;19924;-80
2021/01/21 08:45:12;;;;;;;;;;;;;;;2.13;100.00;96171.22;5111820;28;19962;-84
2021/01/21 08:47:49;;;;;;;;;;;;;;;2.15;100.00;96177.09;5093310;28;20291;-81
2021/01/21 08:50:18;;;;;;;;;;;;;;;2.15;100.00;96168.81;5111058;28;19928;-81
2021/01/21 08:52:54;;;;;;;;;;;;;;;2.21;100.00;96172.59;5092631;28;20004;-81
2021/01/21 08:55:21;;;;;;;;;;;;;;;2.26;100.00;96174.81;5092788;28;19935;-82
2021/01/21 08:58:01;;;;;;;;;;;;;;;2.33;100.00;96182.84;5111735;27;19931;-82
2021/01/21 09:00:28;;;;;;;;;;;;;;;2.42;100.00;96177.47;5111658;28;19924;-82
2021/01/21 09:02:54;;;;;;;;;;;;;;;2.52;100.00;96176.34;5110000;28;19923;-80
2021/01/21 09:05:21;;;;;;;;;;;;;;;2.56;100.00;96183.31;5092671;28;20262;-78
2021/01/21 09:07:49;;;;;;;;;;;;;;;2.62;100.00;96183.56;5111555;28;20406;-78
2021/01/21 09:10:15;;;;;;;;;;;;;;;2.64;100.00;96178.34;5110738;28;19928;-78
2021/01/21 09:12:42;;;;;;;;;;;;;;;2.67;100.00;96174.72;5110285;28;19927;-77
2021/01/21 09:15:09;;;;;;;;;;;;;;;2.63;100.00;96165.78;5111233;28;19923;-75
2021/01/21 09:17:40;;;;;;;;;;;;;;;2.65;100.00;96166.88;5110099;28;20405;-75
2021/01/21 09:20:20;;;;;;;;;;;;;;;2.72;100.00;96149.38;5110148;28;19953;-73
2021/01/21 09:22:49;;;;;;;;;;;;;;;2.74;100.00;96157.97;5110623;28;20301;-74
2021/01/21 09:25:27;;;;;;;;;;;;;;;2.80;100.00;96151.44;5110917;28;20393;-74
2021/01/21 09:27:55;;;;;;;;;;;;;;;2.85;100.00;96148.13;5110462;28;20316;-74
2021/01/21 09:30:23;;;;;;;;;;;;;;;2.83;100.00;96147.81;5110571;28;19935;-74
2021/01/21 09:32:49;;;;;;;;;;;;;;;2.81;100.00;96136.47;5109896;28;20389;-74
2021/01/21 09:35:17;;;;;;;;;;;;;;;2.77;100.00;96146.06;5110743;28;19931;-75
2021/01/21 09:37:45;;;;;;;;;;;;;;;2.77;100.00;96124.00;5109825;28;20306;-74
2021/01/21 09:40:16;;;;;;;;;;;;;;;2.71;100.00;96132.03;5109497;28;20161;-74
2021/01/21 09:42:43;;;;;;;;;;;;;;;2.81;100.00;96130.16;5110173;28;19924;-75
2021/01/21 09:45:09;;;;;;;;;;;;;;;2.83;100.00;96117.47;5110473;28;20371;-77
2021/01/21 09:47:36;;;;;;;;;;;;;;;2.85;100.00;96117.03;5109564;28;19923;-75
2021/01/21 09:50:04;;;;;;;;;;;;;;;2.85;100.00;96120.56;5108137;28;20348;-74
2021/01/21 09:52:32;;;;;;;;;;;;;;;2.85;100.00;96119.78;5110671;27;19927;-73
2021/01/21 09:54:59;;;;;;;;;;;;;;;2.82;100.00;96115.94;5109769;28;19932;-73
2021/01/21 09:57:25;;;;;;;;;;;;;;;2.81;100.00;96119.13;5108804;28;19979;-76
2021/01/21 09:59:52;;;;;;;;;;;;;;;2.82;100.00;96128.94;5110170;28;19923;-76
2021/01/21 10:02:19;;;;;;;;;;;;;;;2.84;100.00;96123.78;5109093;28;19923;-77
2021/01/21 10:04:46;;;;;;;;;;;;;;;2.71;100.00;96120.25;5110161;28;19972;-77
2021/01/21 10:07:12;;;;;;;;;;;;;;;2.73;100.00;96115.84;5109552;28;20023;-77
2021/01/21 10:09:39;;;;;;;;;;;;;;;2.72;100.00;96119.03;5109274;28;19928;-77
2021/01/21 10:12:06;;;;;;;;;;;;;;;2.78;100.00;96131.06;5110205;28;19924;-74
2021/01/21 10:14:36;;;;;;;;;;;;;;;2.79;100.00;96127.06;5109686;28;20230;-74
2021/01/21 10:17:03;;;;;;;;;;;;;;;2.79;100.00;96140.84;5090828;28;19930;-75
2021/01/21 10:21:58;;;;;;;;;;;;;;;2.75;100.00;96129.97;5103742;28;19977;-74
2021/01/21 10:24:24;;;;;;;;;;;;;;;2.79;100.00;96135.34;5109623;28;19923;-74
2021/01/21 10:26:51;;;;;;;;;;;;;;;2.76;100.00;96128.75;5111567;28;19942;-75
2021/01/21 10:29:18;;;;;;;;;;;;;;;2.75;100.00;96126.44;5110625;28;19930;-74
2021/01/21 10:31:46;;;;;;;;;;;;;;;2.87;100.00;96125.63;5100933;27;20023;-75
2021/01/21 10:34:13;;;;;;;;;;;;;;;2.87;100.00;96140.19;5111241;28;20300;-76
2021/01/21 10:36:39;;;;;;;;;;;;;;;2.76;100.00;96139.75;5109239;28;20014;-76
2021/01/21 10:39:06;;;;;;;;;;;;;;;2.77;100.00;96129.53;5110385;28;19931;-76
2021/01/21 10:41:33;;;;;;;;;;;;;;;2.67;100.00;96136.91;5096818;28;19924;-76
2021/01/21 10:44:00;;;;;;;;;;;;;;;2.73;100.00;96128.84;5113886;28;19977;-77
2021/01/21 10:46:26;;;;;;;;;;;;;;;2.69;100.00;96144.72;5114901;28;19923;-77
2021/01/21 10:48:53;;;;;;;;;;;;;;;2.76;100.00;96147.25;5113536;28;19924;-78
2021/01/21 10:51:20;;;;;;;;;;;;;;;2.77;100.00;96146.81;5114816;28;19924;-80
2021/01/21 10:53:47;;;;;;;;;;;;;;;2.83;100.00;96158.84;5114007;28;19923;-80
2021/01/21 10:56:15;;;;;;;;;;;;;;;2.87;100.00;96145.72;5113802;28;20014;-81
2021/01/21 10:58:42;;;;;;;;;;;;;;;2.92;100.00;96164.44;5114045;28;19928;-80
2021/01/21 11:01:09;;;;;;;;;;;;;;;2.93;100.00;96166.00;5113491;28;19927;-78
2021/01/21 11:03:35;;;;;;;;;;;;;;;3.00;100.00;96165.03;5114822;28;20294;-80
2021/01/21 11:06:01;;;;;;;;;;;;;;;3.06;100.00;96164.00;5096324;28;20379;-80
2021/01/21 11:08:28;;;;;;;;;;;;;;;3.10;100.00;96163.88;5114697;28;20410;-79
2021/01/21 11:10:55;;;;;;;;;;;;;;;3.18;100.00;96159.69;5096707;28;19923;-79
2021/01/21 11:13:21;;;;;;;;;;;;;;;3.24;100.00;96177.22;5114422;28;19931;-77
2021/01/21 11:15:51;;;;;;;;;;;;;;;3.24;100.00;96168.94;5114365;28;19935;-79
2021/01/21 11:18:17;;;;;;;;;;;;;;;3.29;100.00;96177.44;5114544;28;19924;-78
2021/01/21 11:20:44;;;;;;;;;;;;;;;3.34;100.00;96178.84;5114240;28;19924;-77
2021/01/21 11:23:10;;;;;;;;;;;;;;;3.36;100.00;96166.16;5113300;28;19924;-77
2021/01/21 11:25:37;;;;;;;;;;;;;;;3.36;100.00;96182.69;5114506;28;19923;-78
2021/01/21 11:28:04;;;;;;;;;;;;;;;3.43;100.00;96181.69;5113218;28;19930;-76
2021/01/21 11:30:30;;;;;;;;;;;;;;;3.44;100.00;96186.00;5114407;28;19985;-79
2021/01/21 11:32:57;;;;;;;;;;;;;;;3.55;100.00;96181.66;5114486;28;19930;-78
2021/01/21 11:35:24;;;;;;;;;;;;;;;3.56;100.00;96185.97;5114185;28;19932;-79
2021/01/21 11:37:51;;;;;;;;;;;;;;;3.60;100.00;96185.84;5096055;28;20301;-80
2021/01/21 11:40:17;;;;;;;;;;;;;;;3.50;100.00;96189.72;5112457;28;19931;-80
2021/01/21 11:42:44;;;;;;;;;;;;;;;3.47;100.00;96185.09;5113354;28;19924;-80
2021/01/21 11:45:10;;;;;;;;;;;;;;;3.45;100.00;96171.75;5112197;28;19924;-80
2021/01/21 11:47:40;;;;;;;;;;;;;;;3.45;100.00;96190.31;5111939;28;19924;-80
2021/01/21 11:50:09;;;;;;;;;;;;;;;3.41;100.00;96156.53;5113409;28;19924;-80
2021/01/21 11:52:36;;;;;;;;;;;;;;;3.40;100.00;96153.00;5112105;28;19973;-80
2021/01/21 11:55:03;;;;;;;;;;;;;;;3.49;100.00;96157.84;5117329;28;19930;-80
2021/01/21 11:57:30;;;;;;;;;;;;;;;3.57;100.00;96157.13;5117430;28;19976;-80
2021/01/21 11:59:59;;;;;;;;;;;;;;;3.73;100.00;96173.56;5116324;28;19924;-80
2021/01/21 12:02:26;;;;;;;;;;;;;;;3.67;100.00;96175.34;5115827;28;19924;-80
2021/01/21 12:04:53;;;;;;;;;;;;;;;3.66;100.00;96167.50;5117307;28;19924;-80
2021/01/21 12:07:19;;;;;;;;;;;;;;;3.66;100.00;96173.78;5116151;28;19923;-80
2021/01/21 12:09:46;;;;;;;;;;;;;;;3.70;100.00;96165.38;5117176;28;19931;-80
2021/01/21 12:12:12;;;;;;;;;;;;;;;3.59;100.00;96165.75;5115772;28;19924;-80
2021/01/21 12:14:39;;;;;;;;;;;;;;;3.65;100.00;96157.66;5115856;28;19970;-80
2021/01/21 12:17:06;;;;;;;;;;;;;;;3.69;100.00;96161.09;5115549;28;20398;-80
2021/01/21 12:19:32;;;;;;;;;;;;;;;3.73;100.00;96168.03;5117029;28;19947;-80
2021/01/21 12:21:59;;;;;;;;;;;;;;;3.89;100.00;96174.59;5116818;28;20339;-80
2021/01/21 12:24:25;;;;;;;;;;;;;;;3.85;100.00;96173.94;5115677;28;19931;-80
2021/01/21 12:26:52;;;;;;;;;;;;;;;3.86;100.00;96181.00;5115602;28;19972;-80
2021/01/21 12:29:19;;;;;;;;;;;;;;;3.77;100.00;96183.69;5116756;27;19937;-80
2021/01/21 12:31:45;;;;;;;;;;;;;;;3.67;100.00;96171.78;5115262;28;19924;-80
2021/01/21 12:34:12;;;;;;;;;;;;;;;3.60;100.00;96172.81;5098459;28;19924;-81
2021/01/21 12:36:38;;;;;;;;;;;;;;;3.53;100.00;96175.03;5098669;28;19928;-80
2021/01/21 12:39:05;;;;;;;;;;;;;;;3.53;100.00;96183.31;5115527;28;19947;-80
2021/01/21 12:41:32;;;;;;;;;;;;;;;3.57;100.00;96178.47;5116435;28;19924;-81
2021/01/21 12:43:59;;;;;;;;;;;;;;;3.61;100.00;96179.88;5115278;28;19928;-80
2021/01/21 12:46:28;;;;;;;;;;;;;;;3.75;100.00;96186.91;5116400;28;20018;-80
2021/01/21 12:48:55;;;;;;;;;;;;;;;3.85;100.00;96196.81;5116471;28;20014;-80
2021/01/21 12:51:22;;;;;;;;;;;;;;;3.95;100.00;96190.16;5115119;28;19924;-80
2021/01/21 12:53:49;;;;;;;;;;;;;;;4.08;100.00;96199.13;5116135;28;19935;-80
2021/01/21 12:56:15;;;;;;;;;;;;;;;4.08;100.00;96204.66;5115026;28;19931;-80
2021/01/21 12:58:42;;;;;;;;;;;;;;;4.11;100.00;96192.72;5116244;28;20301;-80
2021/01/21 13:01:08;;;;;;;;;;;;;;;4.19;100.00;96199.53;5116245;28;19989;-80
2021/01/21 13:03:37;;;;;;;;;;;;;;;4.20;100.00;96178.97;5116179;28;19924;-80
2021/01/21 13:06:09;;;;;;;;;;;;;;;4.20;100.00;96187.25;5113894;28;20349;-80
2021/01/21 13:08:36;;;;;;;;;;;;;;;4.22;100.00;96184.03;5116168;28;19928;-80
2021/01/21 13:11:02;;;;;;;;;;;;;;;4.22;100.00;96176.53;5114207;28;19923;-80